sensor_id;sensor_type;location;lat;lon;timestamp;pressure;altitude;pressure_sealevel;temperature;humidity
64683;BME280;51107;47.652;19.016;2023-05-23T00:00:13;99637.63;;;15.01;97.78
64683;BME280;51107;47.652;19.016;2023-05-23T00:02:43;99645.59;;;14.92;98.81
64683;BME280;51107;47.652;19.016;2023-05-23T00:05:12;99635.75;;;14.94;98.76
64683;BME280;51107;47.652;19.016;2023-05-23T00:07:43;99635.91;;;14.93;98.21
64683;BME280;51107;47.652;19.016;2023-05-23T00:10:13;99631.22;;;14.88;99.14
64683;BME280;51107;47.652;19.016;2023-05-23T00:12:41;99636.28;;;14.90;97.86
64683;BME280;51107;47.652;19.016;2023-05-23T00:15:09;99638.72;;;14.91;97.52
64683;BME280;51107;47.652;19.016;2023-05-23T00:17:38;99638.38;;;14.94;97.50
64683;BME280;51107;47.652;19.016;2023-05-23T00:20:06;99637.13;;;14.90;98.05
64683;BME280;51107;47.652;19.016;2023-05-23T00:22:39;99633.22;;;14.86;98.86
64683;BME280;51107;47.652;19.016;2023-05-23T00:25:09;99635.03;;;14.86;99.21
64683;BME280;51107;47.652;19.016;2023-05-23T00:27:38;99641.81;;;14.80;100.00
64683;BME280;51107;47.652;19.016;2023-05-23T00:30:07;99633.75;;;14.82;99.16
64683;BME280;51107;47.652;19.016;2023-05-23T00:32:35;99639.00;;;14.82;98.87
64683;BME280;51107;47.652;19.016;2023-05-23T00:35:03;99634.41;;;14.84;99.51
64683;BME280;51107;47.652;19.016;2023-05-23T00:37:32;99632.50;;;14.77;99.28
64683;BME280;51107;47.652;19.016;2023-05-23T00:40:01;99636.38;;;14.82;97.99
64683;BME280;51107;47.652;19.016;2023-05-23T00:42:29;99634.31;;;14.77;98.61
64683;BME280;51107;47.652;19.016;2023-05-23T00:45:00;99625.63;;;14.76;98.73
64683;BME280;51107;47.652;19.016;2023-05-23T00:47:28;99624.00;;;14.75;98.86
64683;BME280;51107;47.652;19.016;2023-05-23T00:49:57;99628.09;;;14.78;99.17
64683;BME280;51107;47.652;19.016;2023-05-23T00:52:26;99628.09;;;14.78;98.16
64683;BME280;51107;47.652;19.016;2023-05-23T00:54:54;99636.38;;;14.82;98.56
64683;BME280;51107;47.652;19.016;2023-05-23T00:57:22;99628.88;;;14.78;99.46
64683;BME280;51107;47.652;19.016;2023-05-23T00:59:52;99622.19;;;14.76;99.54
64683;BME280;51107;47.652;19.016;2023-05-23T01:02:21;99625.97;;;14.73;99.94
64683;BME280;51107;47.652;19.016;2023-05-23T01:04:49;99615.88;;;14.70;99.97
64683;BME280;51107;47.652;19.016;2023-05-23T01:07:22;99628.78;;;14.72;100.00
64683;BME280;51107;47.652;19.016;2023-05-23T01:09:50;99629.59;;;14.72;100.00
64683;BME280;51107;47.652;19.016;2023-05-23T01:12:25;99623.91;;;14.69;100.00
64683;BME280;51107;47.652;19.016;2023-05-23T01:15:03;99627.87;;;14.65;100.00
64683;BME280;51107;47.652;19.016;2023-05-23T01:17:50;99625.28;;;14.65;100.00
64683;BME280;51107;47.652;19.016;2023-05-23T01:20:29;99619.84;;;14.66;100.00
64683;BME280;51107;47.652;19.016;2023-05-23T01:28:32;99633.00;;;14.58;100.00
64683;BME280;51107;47.652;19.016;2023-05-23T01:31:05;99627.41;;;14.61;100.00
64683;BME280;51107;47.652;19.016;2023-05-23T01:33:35;99628.22;;;14.61;100.00
64683;BME280;51107;47.652;19.016;2023-05-23T01:36:05;99621.88;;;14.56;100.00
64683;BME280;51107;47.652;19.016;2023-05-23T01:38:34;99615.03;;;14.55;100.00
64683;BME280;51107;47.652;19.016;2023-05-23T01:41:02;99617.66;;;14.55;100.00
64683;BME280;51107;47.652;19.016;2023-05-23T01:43:31;99629.00;;;14.47;100.00
64683;BME280;51107;47.652;19.016;2023-05-23T01:46:00;99618.81;;;14.52;100.00
64683;BME280;51107;47.652;19.016;2023-05-23T01:48:30;99618.53;;;14.47;100.00
64683;BME280;51107;47.652;19.016;2023-05-23T01:51:04;99618.91;;;14.44;100.00
64683;BME280;51107;47.652;19.016;2023-05-23T01:53:34;99614.47;;;14.44;100.00
64683;BME280;51107;47.652;19.016;2023-05-23T01:56:04;99617.34;;;14.35;100.00
64683;BME280;51107;47.652;19.016;2023-05-23T01:58:32;99618.25;;;14.27;100.00
64683;BME280;51107;47.652;19.016;2023-05-23T02:01:01;99620.34;;;14.32;100.00
64683;BME280;51107;47.652;19.016;2023-05-23T02:03:30;99613.16;;;14.25;100.00
64683;BME280;51107;47.652;19.016;2023-05-23T02:05:59;99613.16;;;14.25;100.00
64683;BME280;51107;47.652;19.016;2023-05-23T02:08:27;99608.22;;;14.31;100.00
64683;BME280;51107;47.652;19.016;2023-05-23T02:10:56;99611.81;;;14.30;100.00
64683;BME280;51107;47.652;19.016;2023-05-23T02:13:24;99609.12;;;14.23;100.00
64683;BME280;51107;47.652;19.016;2023-05-23T02:15:53;99609.47;;;14.20;100.00
64683;BME280;51107;47.652;19.016;2023-05-23T02:18:21;99615.53;;;14.20;100.00
64683;BME280;51107;47.652;19.016;2023-05-23T02:20:53;99601.97;;;14.17;100.00
64683;BME280;51107;47.652;19.016;2023-05-23T02:23:23;99598.19;;;14.19;100.00
64683;BME280;51107;47.652;19.016;2023-05-23T02:25:51;99594.91;;;14.17;100.00
64683;BME280;51107;47.652;19.016;2023-05-23T02:28:20;99594.81;;;14.10;100.00
64683;BME280;51107;47.652;19.016;2023-05-23T02:30:49;99596.41;;;13.97;100.00
64683;BME280;51107;47.652;19.016;2023-05-23T02:33:17;99591.09;;;14.05;100.00
64683;BME280;51107;47.652;19.016;2023-05-23T02:35:46;99591.28;;;14.03;100.00
64683;BME280;51107;47.652;19.016;2023-05-23T02:38:17;99588.81;;;14.02;100.00
64683;BME280;51107;47.652;19.016;2023-05-23T02:40:47;99588.13;;;14.08;100.00
64683;BME280;51107;47.652;19.016;2023-05-23T02:43:18;99594.97;;;13.94;100.00
64683;BME280;51107;47.652;19.016;2023-05-23T02:45:47;99597.47;;;13.87;100.00
64683;BME280;51107;47.652;19.016;2023-05-23T02:48:15;99591.06;;;13.90;100.00
64683;BME280;51107;47.652;19.016;2023-05-23T02:50:44;99588.34;;;13.83;100.00
64683;BME280;51107;47.652;19.016;2023-05-23T02:53:13;99595.47;;;13.89;100.00
64683;BME280;51107;47.652;19.016;2023-05-23T02:55:41;99590.72;;;13.93;100.00
64683;BME280;51107;47.652;19.016;2023-05-23T02:58:10;99591.69;;;13.92;100.00
64683;BME280;51107;47.652;19.016;2023-05-23T03:00:39;99589.25;;;13.90;100.00
64683;BME280;51107;47.652;19.016;2023-05-23T03:03:07;99579.94;;;13.88;100.00
64683;BME280;51107;47.652;19.016;2023-05-23T03:05:35;99587.06;;;13.79;100.00
64683;BME280;51107;47.652;19.016;2023-05-23T03:08:05;99584.44;;;13.79;100.00
64683;BME280;51107;47.652;19.016;2023-05-23T03:10:34;99585.00;;;13.89;100.00
64683;BME280;51107;47.652;19.016;2023-05-23T03:13:02;99581.75;;;13.87;100.00
64683;BME280;51107;47.652;19.016;2023-05-23T03:15:31;99591.84;;;13.75;100.00
64683;BME280;51107;47.652;19.016;2023-05-23T03:17:59;99591.22;;;13.73;100.00
64683;BME280;51107;47.652;19.016;2023-05-23T03:20:27;99598.22;;;13.73;100.00
64683;BME280;51107;47.652;19.016;2023-05-23T03:22:56;99601.09;;;13.63;100.00
64683;BME280;51107;47.652;19.016;2023-05-23T03:25:24;99598.94;;;13.67;100.00
64683;BME280;51107;47.652;19.016;2023-05-23T03:27:54;99606.25;;;13.71;100.00
64683;BME280;51107;47.652;19.016;2023-05-23T03:30:23;99614.28;;;13.70;100.00
64683;BME280;51107;47.652;19.016;2023-05-23T03:32:51;99602.66;;;13.72;100.00
64683;BME280;51107;47.652;19.016;2023-05-23T03:35:20;99607.53;;;13.75;100.00
64683;BME280;51107;47.652;19.016;2023-05-23T03:37:49;99611.13;;;13.74;100.00
64683;BME280;51107;47.652;19.016;2023-05-23T03:40:17;99601.50;;;13.75;100.00
64683;BME280;51107;47.652;19.016;2023-05-23T03:42:47;99604.28;;;13.73;100.00
64683;BME280;51107;47.652;19.016;2023-05-23T03:45:16;99601.62;;;13.82;100.00
64683;BME280;51107;47.652;19.016;2023-05-23T03:47:45;99605.47;;;13.71;100.00
64683;BME280;51107;47.652;19.016;2023-05-23T03:50:14;99608.75;;;13.65;100.00
64683;BME280;51107;47.652;19.016;2023-05-23T03:52:42;99602.78;;;13.56;100.00
64683;BME280;51107;47.652;19.016;2023-05-23T03:55:10;99603.25;;;13.59;100.00
64683;BME280;51107;47.652;19.016;2023-05-23T03:57:39;99603.25;;;13.59;100.00
64683;BME280;51107;47.652;19.016;2023-05-23T04:00:08;99604.59;;;13.55;100.00
64683;BME280;51107;47.652;19.016;2023-05-23T04:02:44;99599.91;;;13.66;100.00
64683;BME280;51107;47.652;19.016;2023-05-23T04:05:17;99607.53;;;13.52;100.00
64683;BME280;51107;47.652;19.016;2023-05-23T04:07:46;99607.34;;;13.54;100.00
64683;BME280;51107;47.652;19.016;2023-05-23T04:10:14;99607.66;;;13.59;100.00
64683;BME280;51107;47.652;19.016;2023-05-23T04:12:43;99599.06;;;13.73;100.00
64683;BME280;51107;47.652;19.016;2023-05-23T04:15:12;99592.31;;;13.79;100.00
64683;BME280;51107;47.652;19.016;2023-05-23T04:17:43;99603.22;;;13.83;100.00
64683;BME280;51107;47.652;19.016;2023-05-23T04:20:12;99597.84;;;13.84;100.00
64683;BME280;51107;47.652;19.016;2023-05-23T04:22:40;99606.94;;;13.88;100.00
64683;BME280;51107;47.652;19.016;2023-05-23T04:25:09;99608.69;;;13.96;100.00
64683;BME280;51107;47.652;19.016;2023-05-23T04:27:38;99611.87;;;14.06;100.00
64683;BME280;51107;47.652;19.016;2023-05-23T04:30:08;99147.53;;;11.27;100.00
64683;BME280;51107;47.652;19.016;2023-05-23T04:32:37;99600.91;;;14.26;100.00
64683;BME280;51107;47.652;19.016;2023-05-23T04:35:06;99608.03;;;14.32;100.00
64683;BME280;51107;47.652;19.016;2023-05-23T04:37:36;99607.84;;;14.34;100.00
64683;BME280;51107;47.652;19.016;2023-05-23T04:40:07;99599.66;;;14.37;100.00
64683;BME280;51107;47.652;19.016;2023-05-23T04:42:36;99605.16;;;14.42;100.00
64683;BME280;51107;47.652;19.016;2023-05-23T04:45:05;99606.06;;;14.49;100.00
64683;BME280;51107;47.652;19.016;2023-05-23T04:47:34;99610.75;;;14.39;100.00
64683;BME280;51107;47.652;19.016;2023-05-23T04:50:05;99600.84;;;14.49;100.00
64683;BME280;51107;47.652;19.016;2023-05-23T04:52:34;99598.28;;;14.56;100.00
64683;BME280;51107;47.652;19.016;2023-05-23T04:55:02;99603.47;;;14.64;100.00
64683;BME280;51107;47.652;19.016;2023-05-23T04:57:31;99596.63;;;14.63;100.00
64683;BME280;51107;47.652;19.016;2023-05-23T05:00:01;99600.31;;;14.69;100.00
64683;BME280;51107;47.652;19.016;2023-05-23T05:02:32;99597.13;;;14.73;100.00
64683;BME280;51107;47.652;19.016;2023-05-23T05:05:02;99588.19;;;14.83;100.00
64683;BME280;51107;47.652;19.016;2023-05-23T05:07:31;99585.53;;;14.98;100.00
64683;BME280;51107;47.652;19.016;2023-05-23T05:10:02;99587.31;;;15.12;100.00
64683;BME280;51107;47.652;19.016;2023-05-23T05:12:31;99575.72;;;15.21;100.00
64683;BME280;51107;47.652;19.016;2023-05-23T05:15:02;99582.66;;;15.29;100.00
64683;BME280;51107;47.652;19.016;2023-05-23T05:17:31;99580.34;;;15.41;100.00
64683;BME280;51107;47.652;19.016;2023-05-23T05:20:04;99590.00;;;15.55;100.00
64683;BME280;51107;47.652;19.016;2023-05-23T05:22:36;99584.25;;;15.67;100.00
64683;BME280;51107;47.652;19.016;2023-05-23T05:25:09;99580.09;;;15.79;100.00
64683;BME280;51107;47.652;19.016;2023-05-23T05:27:38;99590.91;;;15.84;100.00
64683;BME280;51107;47.652;19.016;2023-05-23T05:30:07;99589.94;;;15.92;100.00
64683;BME280;51107;47.652;19.016;2023-05-23T05:32:37;99592.66;;;16.05;100.00
64683;BME280;51107;47.652;19.016;2023-05-23T05:35:06;99596.53;;;16.09;100.00
64683;BME280;51107;47.652;19.016;2023-05-23T05:37:35;99588.13;;;16.21;100.00
64683;BME280;51107;47.652;19.016;2023-05-23T05:40:05;99596.31;;;16.33;99.69
64683;BME280;51107;47.652;19.016;2023-05-23T05:42:35;99588.66;;;16.38;95.32
64683;BME280;51107;47.652;19.016;2023-05-23T05:45:04;99594.56;;;16.46;97.06
64683;BME280;51107;47.652;19.016;2023-05-23T05:47:33;99599.03;;;16.53;94.50
64683;BME280;51107;47.652;19.016;2023-05-23T05:50:01;99593.41;;;16.62;100.00
64683;BME280;51107;47.652;19.016;2023-05-23T05:52:30;99595.72;;;16.72;100.00
64683;BME280;51107;47.652;19.016;2023-05-23T05:54:59;99598.88;;;16.61;100.00
64683;BME280;51107;47.652;19.016;2023-05-23T05:57:27;99594.50;;;16.75;100.00
64683;BME280;51107;47.652;19.016;2023-05-23T05:59:55;99599.78;;;16.81;100.00
64683;BME280;51107;47.652;19.016;2023-05-23T06:02:25;99602.28;;;16.90;100.00
64683;BME280;51107;47.652;19.016;2023-05-23T06:04:54;99601.50;;;16.96;100.00
64683;BME280;51107;47.652;19.016;2023-05-23T06:07:23;99598.47;;;16.99;100.00
64683;BME280;51107;47.652;19.016;2023-05-23T06:09:51;99602.97;;;17.05;100.00
64683;BME280;51107;47.652;19.016;2023-05-23T06:12:20;99599.97;;;17.15;100.00
64683;BME280;51107;47.652;19.016;2023-05-23T06:14:48;99595.31;;;17.24;100.00
64683;BME280;51107;47.652;19.016;2023-05-23T06:17:17;99596.34;;;17.29;100.00
64683;BME280;51107;47.652;19.016;2023-05-23T06:19:46;99598.78;;;17.38;100.00
64683;BME280;51107;47.652;19.016;2023-05-23T06:22:14;99596.97;;;17.45;100.00
64683;BME280;51107;47.652;19.016;2023-05-23T06:24:43;99601.47;;;17.51;97.02
64683;BME280;51107;47.652;19.016;2023-05-23T06:27:12;99601.06;;;17.61;99.94
64683;BME280;51107;47.652;19.016;2023-05-23T06:29:40;99604.28;;;17.63;94.69
64683;BME280;51107;47.652;19.016;2023-05-23T06:32:08;99594.19;;;17.80;86.20
64683;BME280;51107;47.652;19.016;2023-05-23T06:34:37;99599.88;;;17.90;91.38
64683;BME280;51107;47.652;19.016;2023-05-23T06:37:06;99597.69;;;18.07;89.97
64683;BME280;51107;47.652;19.016;2023-05-23T06:39:34;99599.06;;;18.30;85.97
64683;BME280;51107;47.652;19.016;2023-05-23T06:42:04;99595.41;;;18.38;86.52
64683;BME280;51107;47.652;19.016;2023-05-23T06:44:33;99598.63;;;18.40;86.55
64683;BME280;51107;47.652;19.016;2023-05-23T06:47:02;99598.22;;;18.43;83.98
64683;BME280;51107;47.652;19.016;2023-05-23T06:49:30;99595.97;;;18.53;84.01
64683;BME280;51107;47.652;19.016;2023-05-23T06:51:59;99598.31;;;18.88;86.61
64683;BME280;51107;47.652;19.016;2023-05-23T06:54:27;99592.84;;;18.83;79.56
64683;BME280;51107;47.652;19.016;2023-05-23T06:56:56;99587.75;;;18.88;81.47
64683;BME280;51107;47.652;19.016;2023-05-23T06:59:25;99576.50;;;19.06;83.21
64683;BME280;51107;47.652;19.016;2023-05-23T07:01:53;99577.47;;;19.50;79.90
64683;BME280;51107;47.652;19.016;2023-05-23T07:04:22;99587.03;;;19.77;83.06
64683;BME280;51107;47.652;19.016;2023-05-23T07:06:50;99569.91;;;19.79;79.04
64683;BME280;51107;47.652;19.016;2023-05-23T07:09:20;99568.88;;;19.87;79.87
64683;BME280;51107;47.652;19.016;2023-05-23T07:11:48;99568.59;;;19.95;76.62
64683;BME280;51107;47.652;19.016;2023-05-23T07:14:17;99575.41;;;20.47;78.32
64683;BME280;51107;47.652;19.016;2023-05-23T07:16:47;99569.47;;;20.51;74.66
64683;BME280;51107;47.652;19.016;2023-05-23T07:19:16;99561.38;;;20.83;76.87
64683;BME280;51107;47.652;19.016;2023-05-23T07:21:45;99562.84;;;20.98;71.48
64683;BME280;51107;47.652;19.016;2023-05-23T07:24:14;99559.44;;;21.09;68.88
64683;BME280;51107;47.652;19.016;2023-05-23T07:26:42;99558.72;;;21.44;72.67
64683;BME280;51107;47.652;19.016;2023-05-23T07:29:11;99568.13;;;21.59;68.18
64683;BME280;51107;47.652;19.016;2023-05-23T07:31:40;99566.06;;;21.84;70.44
64683;BME280;51107;47.652;19.016;2023-05-23T07:34:10;99564.78;;;22.11;66.45
64683;BME280;51107;47.652;19.016;2023-05-23T07:36:39;99563.81;;;22.64;68.87
64683;BME280;51107;47.652;19.016;2023-05-23T07:39:09;99563.00;;;22.76;66.60
64683;BME280;51107;47.652;19.016;2023-05-23T07:41:37;99566.53;;;22.81;63.33
64683;BME280;51107;47.652;19.016;2023-05-23T07:44:06;99568.22;;;22.99;65.88
64683;BME280;51107;47.652;19.016;2023-05-23T07:46:34;99565.16;;;23.07;63.60
64683;BME280;51107;47.652;19.016;2023-05-23T07:49:03;99564.28;;;23.31;63.19
64683;BME280;51107;47.652;19.016;2023-05-23T07:51:31;99557.94;;;23.49;61.63
64683;BME280;51107;47.652;19.016;2023-05-23T07:54:00;99560.41;;;23.72;62.03
64683;BME280;51107;47.652;19.016;2023-05-23T07:56:28;99559.44;;;24.13;61.08
64683;BME280;51107;47.652;19.016;2023-05-23T07:58:58;99557.34;;;24.15;60.98
64683;BME280;51107;47.652;19.016;2023-05-23T08:01:26;99555.00;;;24.40;57.57
64683;BME280;51107;47.652;19.016;2023-05-23T08:03:55;99560.91;;;24.65;59.52
64683;BME280;51107;47.652;19.016;2023-05-23T08:06:24;99552.63;;;24.88;57.61
64683;BME280;51107;47.652;19.016;2023-05-23T08:08:53;99554.03;;;25.23;59.67
64683;BME280;51107;47.652;19.016;2023-05-23T08:11:21;99562.81;;;25.46;55.97
64683;BME280;51107;47.652;19.016;2023-05-23T08:13:50;99561.69;;;25.42;55.55
64683;BME280;51107;47.652;19.016;2023-05-23T08:16:26;99564.44;;;25.52;57.24
64683;BME280;51107;47.652;19.016;2023-05-23T08:18:55;99551.81;;;25.37;57.02
64683;BME280;51107;47.652;19.016;2023-05-23T08:21:23;99555.25;;;25.10;56.65
64683;BME280;51107;47.652;19.016;2023-05-23T08:23:52;99554.16;;;25.66;54.49
64683;BME280;51107;47.652;19.016;2023-05-23T08:26:20;99557.25;;;25.90;57.44
64683;BME280;51107;47.652;19.016;2023-05-23T08:28:50;99559.03;;;25.80;57.25
64683;BME280;51107;47.652;19.016;2023-05-23T08:31:20;99554.41;;;26.02;57.65
64683;BME280;51107;47.652;19.016;2023-05-23T08:33:48;99549.69;;;26.20;57.30
64683;BME280;51107;47.652;19.016;2023-05-23T08:36:17;99549.50;;;26.42;52.22
64683;BME280;51107;47.652;19.016;2023-05-23T08:38:46;99546.38;;;26.60;55.45
64683;BME280;51107;47.652;19.016;2023-05-23T08:41:18;99549.28;;;26.43;52.97
64683;BME280;51107;47.652;19.016;2023-05-23T08:43:48;99549.59;;;26.62;51.60
64683;BME280;51107;47.652;19.016;2023-05-23T08:46:17;99554.94;;;26.62;54.34
64683;BME280;51107;47.652;19.016;2023-05-23T08:48:50;99556.94;;;26.24;56.32
64683;BME280;51107;47.652;19.016;2023-05-23T08:51:20;99553.69;;;26.75;53.63
64683;BME280;51107;47.652;19.016;2023-05-23T08:53:49;99551.84;;;26.91;51.87
64683;BME280;51107;47.652;19.016;2023-05-23T08:56:22;99546.22;;;26.98;50.60
64683;BME280;51107;47.652;19.016;2023-05-23T08:58:53;99550.50;;;26.94;54.47
64683;BME280;51107;47.652;19.016;2023-05-23T09:01:23;99549.47;;;27.00;50.09
64683;BME280;51107;47.652;19.016;2023-05-23T09:03:52;99548.09;;;26.92;52.20
64683;BME280;51107;47.652;19.016;2023-05-23T09:06:21;99546.53;;;27.22;54.15
64683;BME280;51107;47.652;19.016;2023-05-23T09:08:50;99547.62;;;27.32;50.82
64683;BME280;51107;47.652;19.016;2023-05-23T09:11:19;99550.81;;;27.18;52.68
64683;BME280;51107;47.652;19.016;2023-05-23T09:13:49;99544.16;;;27.46;50.37
64683;BME280;51107;47.652;19.016;2023-05-23T09:16:19;99539.06;;;27.50;50.43
64683;BME280;51107;47.652;19.016;2023-05-23T09:18:48;99540.69;;;27.46;51.50
64683;BME280;51107;47.652;19.016;2023-05-23T09:21:18;99542.81;;;27.49;52.51
64683;BME280;51107;47.652;19.016;2023-05-23T09:23:47;99545.44;;;27.90;48.93
64683;BME280;51107;47.652;19.016;2023-05-23T09:26:16;99542.53;;;27.82;49.21
64683;BME280;51107;47.652;19.016;2023-05-23T09:28:44;99530.75;;;27.83;46.43
64683;BME280;51107;47.652;19.016;2023-05-23T09:31:14;99536.91;;;27.68;49.39
64683;BME280;51107;47.652;19.016;2023-05-23T09:33:47;99528.59;;;27.79;50.64
64683;BME280;51107;47.652;19.016;2023-05-23T09:36:17;99534.97;;;28.04;46.06
64683;BME280;51107;47.652;19.016;2023-05-23T09:38:46;99535.81;;;27.84;47.12
64683;BME280;51107;47.652;19.016;2023-05-23T09:41:20;99531.50;;;27.99;53.62
64683;BME280;51107;47.652;19.016;2023-05-23T09:43:51;99530.69;;;27.98;49.47
64683;BME280;51107;47.652;19.016;2023-05-23T09:46:21;99532.28;;;28.09;48.12
64683;BME280;51107;47.652;19.016;2023-05-23T09:48:50;99527.44;;;28.17;45.89
64683;BME280;51107;47.652;19.016;2023-05-23T09:51:21;99526.38;;;28.12;49.02
64683;BME280;51107;47.652;19.016;2023-05-23T09:53:51;99522.06;;;28.27;46.44
64683;BME280;51107;47.652;19.016;2023-05-23T09:56:20;99524.16;;;28.35;47.04
64683;BME280;51107;47.652;19.016;2023-05-23T09:58:50;99531.50;;;28.09;47.41
64683;BME280;51107;47.652;19.016;2023-05-23T10:01:22;99526.25;;;27.42;46.75
64683;BME280;51107;47.652;19.016;2023-05-23T10:03:52;99517.38;;;27.05;49.68
64683;BME280;51107;47.652;19.016;2023-05-23T10:08:58;99522.88;;;26.62;47.86
64683;BME280;51107;47.652;19.016;2023-05-23T10:14:08;99514.50;;;25.85;50.93
64683;BME280;51107;47.652;19.016;2023-05-23T10:16:46;99513.75;;;25.95;51.13
64683;BME280;51107;47.652;19.016;2023-05-23T10:22:00;99509.69;;;26.30;51.05
64683;BME280;51107;47.652;19.016;2023-05-23T10:24:30;99507.75;;;26.84;54.74
64683;BME280;51107;47.652;19.016;2023-05-23T10:26:58;99504.81;;;27.06;49.60
64683;BME280;51107;47.652;19.016;2023-05-23T10:29:28;99510.94;;;26.81;47.49
64683;BME280;51107;47.652;19.016;2023-05-23T10:31:57;99508.66;;;26.41;48.24
64683;BME280;51107;47.652;19.016;2023-05-23T10:34:27;99505.91;;;25.73;49.24
64683;BME280;51107;47.652;19.016;2023-05-23T10:37:03;99496.22;;;25.62;50.20
64683;BME280;51107;47.652;19.016;2023-05-23T10:45:19;99493.62;;;26.15;53.51
64683;BME280;51107;47.652;19.016;2023-05-23T10:47:50;99490.66;;;26.11;51.07
64683;BME280;51107;47.652;19.016;2023-05-23T10:50:32;99492.63;;;26.31;52.38
64683;BME280;51107;47.652;19.016;2023-05-23T10:53:03;99484.69;;;26.62;50.98
64683;BME280;51107;47.652;19.016;2023-05-23T10:55:35;99480.75;;;26.85;47.67
64683;BME280;51107;47.652;19.016;2023-05-23T10:58:20;99477.75;;;26.66;48.61
64683;BME280;51107;47.652;19.016;2023-05-23T11:01:03;99484.22;;;26.75;48.59
64683;BME280;51107;47.652;19.016;2023-05-23T11:03:34;99470.78;;;26.65;46.40
64683;BME280;51107;47.652;19.016;2023-05-23T11:06:04;99462.25;;;26.63;50.81
64683;BME280;51107;47.652;19.016;2023-05-23T11:08:37;99462.28;;;26.78;45.57
64683;BME280;51107;47.652;19.016;2023-05-23T11:11:15;99462.31;;;26.89;44.49
64683;BME280;51107;47.652;19.016;2023-05-23T11:16:30;99452.69;;;26.72;45.77
64683;BME280;51107;47.652;19.016;2023-05-23T11:24:20;99444.16;;;26.81;46.20
64683;BME280;51107;47.652;19.016;2023-05-23T11:26:57;99455.38;;;26.93;44.99
64683;BME280;51107;47.652;19.016;2023-05-23T11:29:29;99447.34;;;26.83;45.38
64683;BME280;51107;47.652;19.016;2023-05-23T11:31:58;99433.97;;;26.98;45.67
64683;BME280;51107;47.652;19.016;2023-05-23T11:34:26;99439.59;;;26.91;45.56
64683;BME280;51107;47.652;19.016;2023-05-23T11:36:55;99435.00;;;26.66;45.46
64683;BME280;51107;47.652;19.016;2023-05-23T11:39:23;99435.50;;;26.42;44.75
64683;BME280;51107;47.652;19.016;2023-05-23T11:42:01;99435.72;;;26.20;46.30
64683;BME280;51107;47.652;19.016;2023-05-23T11:44:30;99428.53;;;26.31;46.57
64683;BME280;51107;47.652;19.016;2023-05-23T11:47:03;99420.53;;;26.41;46.28
64683;BME280;51107;47.652;19.016;2023-05-23T11:49:36;99422.97;;;26.48;47.98
64683;BME280;51107;47.652;19.016;2023-05-23T11:52:07;99420.78;;;26.24;47.58
64683;BME280;51107;47.652;19.016;2023-05-23T11:54:38;99423.00;;;25.85;46.41
64683;BME280;51107;47.652;19.016;2023-05-23T11:57:07;99416.81;;;25.74;47.70
64683;BME280;51107;47.652;19.016;2023-05-23T11:59:35;99407.31;;;25.40;47.97
64683;BME280;51107;47.652;19.016;2023-05-23T12:02:05;99418.72;;;25.36;56.66
64683;BME280;51107;47.652;19.016;2023-05-23T12:04:34;99419.06;;;25.12;63.87
64683;BME280;51107;47.652;19.016;2023-05-23T12:07:06;99407.06;;;24.50;67.56
64683;BME280;51107;47.652;19.016;2023-05-23T12:09:44;99400.81;;;24.12;73.68
64683;BME280;51107;47.652;19.016;2023-05-23T12:12:13;99397.19;;;23.96;68.71
64683;BME280;51107;47.652;19.016;2023-05-23T12:14:42;99395.56;;;23.95;67.07
64683;BME280;51107;47.652;19.016;2023-05-23T12:17:12;99393.44;;;23.97;65.94
64683;BME280;51107;47.652;19.016;2023-05-23T12:19:44;99388.88;;;23.92;75.61
64683;BME280;51107;47.652;19.016;2023-05-23T12:22:13;99375.13;;;23.78;76.11
64683;BME280;51107;47.652;19.016;2023-05-23T12:24:44;99382.59;;;23.81;84.46
64683;BME280;51107;47.652;19.016;2023-05-23T12:27:16;99371.88;;;23.93;78.61
64683;BME280;51107;47.652;19.016;2023-05-23T12:29:49;99374.47;;;24.10;73.76
64683;BME280;51107;47.652;19.016;2023-05-23T12:32:23;99373.31;;;24.28;72.75
64683;BME280;51107;47.652;19.016;2023-05-23T12:34:52;99359.56;;;24.36;68.23
64683;BME280;51107;47.652;19.016;2023-05-23T12:37:20;99366.34;;;24.49;64.28
64683;BME280;51107;47.652;19.016;2023-05-23T12:39:48;99363.91;;;24.48;61.86
64683;BME280;51107;47.652;19.016;2023-05-23T12:42:17;99365.31;;;24.28;67.03
64683;BME280;51107;47.652;19.016;2023-05-23T12:44:50;99354.84;;;24.16;66.67
64683;BME280;51107;47.652;19.016;2023-05-23T12:47:19;99349.47;;;24.11;64.84
64683;BME280;51107;47.652;19.016;2023-05-23T12:49:47;99347.59;;;24.39;58.73
64683;BME280;51107;47.652;19.016;2023-05-23T12:52:16;99351.66;;;24.74;59.11
64683;BME280;51107;47.652;19.016;2023-05-23T12:54:44;99344.66;;;25.00;59.16
64683;BME280;51107;47.652;19.016;2023-05-23T12:57:13;99336.78;;;25.21;56.37
64683;BME280;51107;47.652;19.016;2023-05-23T12:59:41;99336.97;;;25.52;55.32
64683;BME280;51107;47.652;19.016;2023-05-23T13:02:10;99323.19;;;25.75;53.26
64683;BME280;51107;47.652;19.016;2023-05-23T13:04:39;99318.97;;;25.95;49.17
64683;BME280;51107;47.652;19.016;2023-05-23T13:07:07;99327.16;;;25.68;48.61
64683;BME280;51107;47.652;19.016;2023-05-23T13:09:36;99321.19;;;25.45;50.44
64683;BME280;51107;47.652;19.016;2023-05-23T13:12:05;99320.41;;;25.45;49.90
64683;BME280;51107;47.652;19.016;2023-05-23T13:14:33;99318.38;;;25.72;52.06
64683;BME280;51107;47.652;19.016;2023-05-23T13:17:01;99317.88;;;25.86;50.34
64683;BME280;51107;47.652;19.016;2023-05-23T13:19:30;99314.97;;;25.98;52.17
64683;BME280;51107;47.652;19.016;2023-05-23T13:21:59;99311.81;;;26.11;48.04
64683;BME280;51107;47.652;19.016;2023-05-23T13:24:28;99320.63;;;26.06;50.05